createdAt,value
2018-03-28T00:01:06.000Z,99190
2018-03-28T00:03:06.000Z,99187
2018-03-28T00:04:06.000Z,99187
2018-03-28T00:06:06.000Z,99195
2018-03-28T00:07:06.000Z,99196
2018-03-28T00:09:06.000Z,99194
2018-03-28T00:11:06.000Z,99190
2018-03-28T00:12:06.000Z,99195
2018-03-28T00:14:06.000Z,99190
2018-03-28T00:16:06.000Z,99195
2018-03-28T00:18:06.000Z,99194
2018-03-28T00:19:35.000Z,99195
2018-03-28T00:21:06.000Z,99196
2018-03-28T00:23:06.000Z,99195
2018-03-28T00:25:06.000Z,99196
2018-03-28T00:27:06.000Z,99194
2018-03-28T00:28:06.000Z,99197
2018-03-28T00:30:06.000Z,99194
2018-03-28T00:32:06.000Z,99187
2018-03-28T00:34:06.000Z,99183
2018-03-28T00:36:06.000Z,99176
2018-03-28T00:37:06.000Z,99180
2018-03-28T00:39:06.000Z,99176
2018-03-28T00:40:06.000Z,99178
2018-03-28T00:41:50.000Z,99169
2018-03-28T00:43:06.000Z,99168
2018-03-28T00:45:06.000Z,99163
2018-03-28T00:47:05.000Z,99164
2018-03-28T00:49:05.000Z,99153
2018-03-28T00:50:05.000Z,99160
2018-03-28T00:52:05.000Z,99151
2018-03-28T00:54:05.000Z,99166
2018-03-28T00:55:50.000Z,99162
2018-03-28T00:57:05.000Z,99161
2018-03-28T00:58:05.000Z,99165
2018-03-28T01:00:05.000Z,99159
2018-03-28T01:01:05.000Z,99157
2018-03-28T01:03:05.000Z,99163
2018-03-28T01:04:05.000Z,99161
2018-03-28T01:06:05.000Z,99158
2018-03-28T01:08:05.000Z,99157
2018-03-28T01:09:05.000Z,99152
2018-03-28T01:11:05.000Z,99149
2018-03-28T01:12:05.000Z,99146
2018-03-28T01:13:05.000Z,99153
2018-03-28T01:15:05.000Z,99148
2018-03-28T01:17:05.000Z,99151
2018-03-28T01:19:05.000Z,99141
2018-03-28T01:20:05.000Z,99148
2018-03-28T01:22:05.000Z,99147
2018-03-28T01:23:50.000Z,99146
2018-03-28T01:25:05.000Z,99140
2018-03-28T01:26:05.000Z,99139
2018-03-28T01:28:05.000Z,99136
2018-03-28T01:29:05.000Z,99141
2018-03-28T01:31:05.000Z,99139
2018-03-28T01:33:05.000Z,99132
2018-03-28T01:35:05.000Z,99134
2018-03-28T01:37:05.000Z,99128
2018-03-28T01:39:05.000Z,99124
2018-03-28T01:41:05.000Z,99125
2018-03-28T01:43:05.000Z,99127
2018-03-28T01:45:05.000Z,99136
2018-03-28T01:47:05.000Z,99145
2018-03-28T01:49:05.000Z,99138
2018-03-28T01:50:05.000Z,99137
2018-03-28T01:52:05.000Z,99140
2018-03-28T01:54:05.000Z,99140
2018-03-28T01:56:05.000Z,99136
2018-03-28T01:57:50.000Z,99133
2018-03-28T01:59:05.000Z,99134
2018-03-28T02:01:05.000Z,99129
2018-03-28T02:02:35.000Z,99134
2018-03-28T02:04:05.000Z,99136
2018-03-28T02:06:05.000Z,99137
2018-03-28T02:07:50.000Z,99137
2018-03-28T02:09:05.000Z,99140
2018-03-28T02:10:05.000Z,99143
2018-03-28T02:11:05.000Z,99142
2018-03-28T02:12:50.000Z,99138
2018-03-28T02:14:05.000Z,99145
2018-03-28T02:16:05.000Z,99145
2018-03-28T02:17:05.000Z,99142
2018-03-28T02:19:05.000Z,99157
2018-03-28T02:21:05.000Z,99159
2018-03-28T02:22:05.000Z,99155
2018-03-28T02:24:05.000Z,99164
2018-03-28T02:26:05.000Z,99152
2018-03-28T02:27:05.000Z,99152
2018-03-28T02:29:05.000Z,99155
2018-03-28T02:31:05.000Z,99150
2018-03-28T02:33:05.000Z,99153
2018-03-28T02:34:05.000Z,99155
2018-03-28T02:35:05.000Z,99150
2018-03-28T02:36:50.000Z,99149
2018-03-28T02:38:05.000Z,99140
2018-03-28T02:40:05.000Z,99141
2018-03-28T02:42:05.000Z,99139
2018-03-28T02:43:05.000Z,99137
2018-03-28T02:45:05.000Z,99137
2018-03-28T02:46:05.000Z,99143
2018-03-28T02:47:05.000Z,99142
2018-03-28T02:49:05.000Z,99144
2018-03-28T02:51:05.000Z,99141
2018-03-28T02:53:05.000Z,99134
2018-03-28T02:55:05.000Z,99135
2018-03-28T02:56:05.000Z,99132
2018-03-28T02:57:05.000Z,99133
2018-03-28T02:59:05.000Z,99127
2018-03-28T03:00:05.000Z,99125
2018-03-28T03:02:05.000Z,99125
2018-03-28T03:03:05.000Z,99126
2018-03-28T03:04:50.000Z,99134
2018-03-28T03:06:05.000Z,99125
2018-03-28T03:08:05.000Z,99126
2018-03-28T03:09:05.000Z,99127
2018-03-28T03:10:05.000Z,99128
2018-03-28T03:12:05.000Z,99135
2018-03-28T03:14:05.000Z,99134
2018-03-28T03:16:05.000Z,99130
2018-03-28T03:17:05.000Z,99127
2018-03-28T03:18:50.000Z,99126
2018-03-28T03:20:05.000Z,99127
2018-03-28T03:22:05.000Z,99124
2018-03-28T03:24:05.000Z,99128
2018-03-28T03:25:50.000Z,99128
2018-03-28T03:27:05.000Z,99130
2018-03-28T03:29:05.000Z,99126
2018-03-28T03:31:05.000Z,99129
2018-03-28T03:32:05.000Z,99133
2018-03-28T03:33:05.000Z,99135
2018-03-28T03:35:05.000Z,99133
2018-03-28T03:36:05.000Z,99127
2018-03-28T03:38:05.000Z,99124
2018-03-28T03:40:05.000Z,99117
2018-03-28T03:41:05.000Z,99122
2018-03-28T03:43:05.000Z,99119
2018-03-28T03:44:05.000Z,99118
2018-03-28T03:46:05.000Z,99124
2018-03-28T03:48:05.000Z,99124
2018-03-28T03:50:05.000Z,99124
2018-03-28T03:51:05.000Z,99124
2018-03-28T03:52:05.000Z,99122
2018-03-28T03:54:05.000Z,99130
2018-03-28T03:55:05.000Z,99130
2018-03-28T03:57:06.000Z,99135
2018-03-28T03:59:06.000Z,99140
2018-03-28T04:01:06.000Z,99148
2018-03-28T04:03:06.000Z,99143
2018-03-28T04:05:06.000Z,99147
2018-03-28T04:06:06.000Z,99144
2018-03-28T04:08:06.000Z,99144
2018-03-28T04:10:06.000Z,99142
2018-03-28T04:12:06.000Z,99137
2018-03-28T04:14:06.000Z,99140
2018-03-28T04:15:06.000Z,99146
2018-03-28T04:17:06.000Z,99145
2018-03-28T04:19:06.000Z,99151
2018-03-28T04:20:06.000Z,99151
2018-03-28T04:22:06.000Z,99147
2018-03-28T04:23:06.000Z,99145
2018-03-28T04:24:06.000Z,99142
2018-03-28T04:26:06.000Z,99142
2018-03-28T04:27:06.000Z,99150
2018-03-28T04:28:06.000Z,99146
2018-03-28T04:30:06.000Z,99144
2018-03-28T04:32:06.000Z,99138
2018-03-28T04:34:06.000Z,99142
2018-03-28T04:36:06.000Z,99133
2018-03-28T04:37:51.000Z,99135
2018-03-28T04:39:06.000Z,99140
2018-03-28T04:40:51.000Z,99135
2018-03-28T04:42:06.000Z,99135
2018-03-28T04:43:06.000Z,99138
2018-03-28T04:45:06.000Z,99137
2018-03-28T04:46:06.000Z,99137
2018-03-28T04:47:51.000Z,99138
2018-03-28T04:49:06.000Z,99133
2018-03-28T04:50:51.000Z,99137
2018-03-28T04:52:06.000Z,99135
2018-03-28T04:54:06.000Z,99131
2018-03-28T04:56:06.000Z,99130
2018-03-28T04:57:06.000Z,99135
2018-03-28T04:59:06.000Z,99142
2018-03-28T05:00:05.000Z,99141
2018-03-28T05:02:05.000Z,99136
2018-03-28T05:03:05.000Z,99136
2018-03-28T05:05:05.000Z,99139
2018-03-28T05:06:50.000Z,99142
2018-03-28T05:08:05.000Z,99139
2018-03-28T05:10:05.000Z,99136
2018-03-28T05:11:05.000Z,99135
2018-03-28T05:13:05.000Z,99137
2018-03-28T05:15:05.000Z,99147
2018-03-28T05:17:05.000Z,99147
2018-03-28T05:18:05.000Z,99146
2018-03-28T05:20:05.000Z,99148
2018-03-28T05:21:50.000Z,99141
2018-03-28T05:23:05.000Z,99147
2018-03-28T05:25:05.000Z,99152
2018-03-28T05:27:05.000Z,99145
2018-03-28T05:28:50.000Z,99148
2018-03-28T05:30:05.000Z,99147
2018-03-28T05:31:05.000Z,99151
2018-03-28T05:33:05.000Z,99154
2018-03-28T05:35:05.000Z,99153
2018-03-28T05:37:05.000Z,99156
2018-03-28T05:38:05.000Z,99155
2018-03-28T05:40:05.000Z,99154
2018-03-28T05:41:50.000Z,99154
2018-03-28T05:43:05.000Z,99157
2018-03-28T05:45:05.000Z,99160
2018-03-28T05:47:05.000Z,99156
2018-03-28T05:49:05.000Z,99162
2018-03-28T05:51:05.000Z,99160
2018-03-28T05:52:05.000Z,99159
2018-03-28T05:53:35.000Z,99160
2018-03-28T05:55:05.000Z,99159
2018-03-28T05:56:50.000Z,99159
2018-03-28T05:58:05.000Z,99159
2018-03-28T05:59:50.000Z,99160
2018-03-28T06:01:05.000Z,99160
2018-03-28T06:03:05.000Z,99160
2018-03-28T06:04:06.000Z,99165
2018-03-28T06:06:06.000Z,99159
2018-03-28T06:07:06.000Z,99155
2018-03-28T06:08:06.000Z,99157
2018-03-28T06:10:06.000Z,99160
2018-03-28T06:12:06.000Z,99161
2018-03-28T06:14:06.000Z,99164
2018-03-28T06:16:06.000Z,99161
2018-03-28T06:17:06.000Z,99160
2018-03-28T06:18:06.000Z,99162
2018-03-28T06:20:06.000Z,99161
2018-03-28T06:21:06.000Z,99163
2018-03-28T06:23:06.000Z,99162
2018-03-28T06:25:06.000Z,99167
2018-03-28T06:26:51.000Z,99167
2018-03-28T06:28:06.000Z,99161
2018-03-28T06:30:06.000Z,99163
2018-03-28T06:32:06.000Z,99157
2018-03-28T06:34:06.000Z,99157
2018-03-28T06:35:51.000Z,99162
2018-03-28T06:37:06.000Z,99154
2018-03-28T06:38:51.000Z,99161
2018-03-28T06:40:06.000Z,99164
2018-03-28T06:42:06.000Z,99158
2018-03-28T06:44:06.000Z,99158
2018-03-28T06:46:06.000Z,99161
2018-03-28T06:48:06.000Z,99162
2018-03-28T06:50:06.000Z,99160
2018-03-28T06:51:06.000Z,99153
2018-03-28T06:53:06.000Z,99153
2018-03-28T06:55:06.000Z,99154
2018-03-28T06:56:06.000Z,99150
2018-03-28T06:57:06.000Z,99149
2018-03-28T06:59:06.000Z,99147
2018-03-28T07:00:06.000Z,99145
2018-03-28T07:02:06.000Z,99143
2018-03-28T07:03:06.000Z,99141
2018-03-28T07:05:06.000Z,99139
2018-03-28T07:06:06.000Z,99139
2018-03-28T07:08:06.000Z,99130
2018-03-28T07:09:06.000Z,99139
2018-03-28T07:11:06.000Z,99149
2018-03-28T07:12:06.000Z,99144
2018-03-28T07:14:05.000Z,99146
2018-03-28T07:15:06.000Z,99148
2018-03-28T07:17:06.000Z,99142
2018-03-28T07:18:50.000Z,99143
2018-03-28T07:20:06.000Z,99138
2018-03-28T07:21:06.000Z,99144
2018-03-28T07:23:06.000Z,99140
2018-03-28T07:24:06.000Z,99144
2018-03-28T07:26:05.000Z,99138
2018-03-28T07:28:06.000Z,99143
2018-03-28T07:29:06.000Z,99138
2018-03-28T07:31:06.000Z,99135
2018-03-28T07:33:06.000Z,99140
2018-03-28T07:34:06.000Z,99137
2018-03-28T07:36:06.000Z,99135
2018-03-28T07:38:06.000Z,99135
2018-03-28T07:40:06.000Z,99140
2018-03-28T07:42:06.000Z,99139
2018-03-28T07:44:06.000Z,99142
2018-03-28T07:45:50.000Z,99139
2018-03-28T07:47:06.000Z,99136
2018-03-28T07:48:06.000Z,99135
2018-03-28T07:50:06.000Z,99137
2018-03-28T07:52:06.000Z,99138
2018-03-28T07:53:06.000Z,99149
2018-03-28T07:54:06.000Z,99142
2018-03-28T07:56:06.000Z,99138
2018-03-28T07:58:06.000Z,99130
2018-03-28T08:00:06.000Z,99131
2018-03-28T08:02:06.000Z,99133
2018-03-28T08:04:05.000Z,99138
2018-03-28T08:05:06.000Z,99134
2018-03-28T08:07:06.000Z,99130
2018-03-28T08:08:50.000Z,99127
2018-03-28T08:10:06.000Z,99125
2018-03-28T08:12:06.000Z,99126
2018-03-28T08:13:06.000Z,99129
2018-03-28T08:15:06.000Z,99121
2018-03-28T08:17:06.000Z,99117
2018-03-28T08:19:06.000Z,99125
2018-03-28T08:21:06.000Z,99117
2018-03-28T08:22:06.000Z,99116
2018-03-28T08:23:51.000Z,99126
2018-03-28T08:25:06.000Z,99111
2018-03-28T08:26:06.000Z,99115
2018-03-28T08:27:06.000Z,99120
2018-03-28T08:28:06.000Z,99115
2018-03-28T08:30:06.000Z,99116
2018-03-28T08:32:06.000Z,99113
2018-03-28T08:34:06.000Z,99116
2018-03-28T08:36:06.000Z,99115
2018-03-28T08:37:06.000Z,99122
2018-03-28T08:39:06.000Z,99115
2018-03-28T08:41:06.000Z,99114
2018-03-28T08:42:06.000Z,99117
2018-03-28T08:44:06.000Z,99116
2018-03-28T08:45:51.000Z,99120
2018-03-28T08:47:06.000Z,99118
2018-03-28T08:48:51.000Z,99114
2018-03-28T08:50:06.000Z,99116
2018-03-28T08:52:06.000Z,99114
2018-03-28T08:54:06.000Z,99112
2018-03-28T08:56:06.000Z,99106
2018-03-28T08:57:06.000Z,99106
2018-03-28T08:59:06.000Z,99103
2018-03-28T09:01:06.000Z,99108
2018-03-28T09:02:51.000Z,99104
2018-03-28T09:04:06.000Z,99104
2018-03-28T09:05:06.000Z,99105
2018-03-28T09:07:06.000Z,99104
2018-03-28T09:08:51.000Z,99099
2018-03-28T09:10:06.000Z,99103
2018-03-28T09:11:06.000Z,99094
2018-03-28T09:13:06.000Z,99091
2018-03-28T09:14:06.000Z,99095
2018-03-28T09:15:35.000Z,99091
2018-03-28T09:17:06.000Z,99091
2018-03-28T09:19:06.000Z,99092
2018-03-28T09:21:06.000Z,99079
2018-03-28T09:22:35.000Z,99078
2018-03-28T09:24:06.000Z,99075
2018-03-28T09:26:06.000Z,99073
2018-03-28T09:28:06.000Z,99071
2018-03-28T09:30:06.000Z,99074
2018-03-28T09:31:06.000Z,99065
2018-03-28T09:32:51.000Z,99073
2018-03-28T09:34:06.000Z,99071
2018-03-28T09:35:35.000Z,99070
2018-03-28T09:37:06.000Z,99066
2018-03-28T09:38:06.000Z,99065
2018-03-28T09:39:06.000Z,99062
2018-03-28T09:41:06.000Z,99058
2018-03-28T09:43:06.000Z,99052
2018-03-28T09:45:06.000Z,99054
2018-03-28T09:46:51.000Z,99054
2018-03-28T09:48:06.000Z,99055
2018-03-28T09:50:06.000Z,99050
2018-03-28T09:52:06.000Z,99057
2018-03-28T09:57:06.000Z,99061
2018-03-28T09:58:52.000Z,99055
2018-03-28T10:00:52.000Z,99059
2018-03-28T10:02:52.000Z,99058
2018-03-28T10:03:52.000Z,99060
2018-03-28T10:05:52.000Z,99057
2018-03-28T10:07:52.000Z,99063
2018-03-28T10:08:52.000Z,99053
2018-03-28T10:10:52.000Z,99050
2018-03-28T10:12:52.000Z,99044
2018-03-28T10:14:37.000Z,99049
2018-03-28T10:15:52.000Z,99057
2018-03-28T10:17:52.000Z,99049
2018-03-28T10:18:52.000Z,99053
2018-03-28T10:20:52.000Z,99056
2018-03-28T10:21:52.000Z,99055
2018-03-28T10:23:52.000Z,99052
2018-03-28T10:25:52.000Z,99056
2018-03-28T10:26:52.000Z,99055
2018-03-28T10:28:52.000Z,99049
2018-03-28T10:30:52.000Z,99058
2018-03-28T10:32:52.000Z,99053
2018-03-28T10:34:52.000Z,99051
2018-03-28T10:36:52.000Z,99053
2018-03-28T10:38:52.000Z,99048
2018-03-28T10:40:52.000Z,99048
2018-03-28T10:41:52.000Z,99051
2018-03-28T10:43:52.000Z,99044
2018-03-28T10:45:52.000Z,99043
2018-03-28T10:47:52.000Z,99037
2018-03-28T10:49:52.000Z,99030
2018-03-28T10:51:52.000Z,99022
2018-03-28T10:53:52.000Z,99015
2018-03-28T10:54:52.000Z,99020
2018-03-28T10:56:52.000Z,99019
2018-03-28T10:58:52.000Z,99016
2018-03-28T11:00:52.000Z,99013
2018-03-28T11:02:52.000Z,99015
2018-03-28T11:03:52.000Z,99017
2018-03-28T11:04:52.000Z,99017
2018-03-28T11:05:52.000Z,99012
2018-03-28T11:07:36.000Z,99006
2018-03-28T11:08:52.000Z,99008
2018-03-28T11:10:52.000Z,99006
2018-03-28T11:12:52.000Z,98997
2018-03-28T11:14:52.000Z,98993
2018-03-28T11:15:52.000Z,98990
2018-03-28T11:17:52.000Z,98983
2018-03-28T11:18:52.000Z,98987
2018-03-28T11:19:52.000Z,98984
2018-03-28T11:21:52.000Z,98977
2018-03-28T11:23:52.000Z,98984
2018-03-28T11:24:52.000Z,98984
2018-03-28T11:26:52.000Z,98979
2018-03-28T11:28:52.000Z,98977
2018-03-28T11:30:52.000Z,98970
2018-03-28T11:32:37.000Z,98973
2018-03-28T11:33:52.000Z,98964
2018-03-28T11:34:52.000Z,98966
2018-03-28T11:36:52.000Z,98953
2018-03-28T11:37:52.000Z,98956
2018-03-28T11:39:52.000Z,98957
2018-03-28T11:40:52.000Z,98948
2018-03-28T11:42:52.000Z,98952
2018-03-28T11:44:52.000Z,98943
2018-03-28T11:46:37.000Z,98937
2018-03-28T11:47:52.000Z,98938
2018-03-28T11:49:22.000Z,98929
2018-03-28T11:50:52.000Z,98927
2018-03-28T11:51:52.000Z,98921
2018-03-28T11:52:52.000Z,98919
2018-03-28T11:54:52.000Z,98919
2018-03-28T11:56:52.000Z,98914
2018-03-28T11:58:52.000Z,98920
2018-03-28T12:00:52.000Z,98914
2018-03-28T12:02:52.000Z,98916
2018-03-28T12:03:52.000Z,98914
2018-03-28T12:05:37.000Z,98903
2018-03-28T12:06:52.000Z,98907
2018-03-28T12:07:52.000Z,98902
2018-03-28T12:09:52.000Z,98896
2018-03-28T12:11:52.000Z,98890
2018-03-28T12:12:52.000Z,98883
2018-03-28T12:13:52.000Z,98883
2018-03-28T12:15:52.000Z,98881
2018-03-28T12:16:52.000Z,98878
2018-03-28T12:18:37.000Z,98870
2018-03-28T12:19:52.000Z,98861
2018-03-28T12:21:52.000Z,98860
2018-03-28T12:22:52.000Z,98856
2018-03-28T12:24:37.000Z,98853
2018-03-28T12:25:52.000Z,98852
2018-03-28T12:27:21.000Z,98853
2018-03-28T12:28:52.000Z,98846
2018-03-28T12:30:52.000Z,98842
2018-03-28T12:32:52.000Z,98842
2018-03-28T12:34:52.000Z,98836
2018-03-28T12:36:37.000Z,98826
2018-03-28T12:37:52.000Z,98830
2018-03-28T12:39:37.000Z,98835
2018-03-28T12:40:52.000Z,98823
2018-03-28T12:41:52.000Z,98820
2018-03-28T12:43:52.000Z,98808
2018-03-28T12:45:52.000Z,98812
2018-03-28T12:46:52.000Z,98813
2018-03-28T12:48:52.000Z,98811
2018-03-28T12:50:21.000Z,98805
2018-03-28T12:51:52.000Z,98809
2018-03-28T12:52:52.000Z,98796
2018-03-28T12:54:52.000Z,98792
2018-03-28T12:56:52.000Z,98781
2018-03-28T12:57:52.000Z,98786
2018-03-28T12:59:37.000Z,98778
2018-03-28T13:00:52.000Z,98779
2018-03-28T13:02:52.000Z,98770
2018-03-28T13:04:52.000Z,98764
2018-03-28T13:06:52.000Z,98765
2018-03-28T13:08:52.000Z,98759
2018-03-28T13:10:52.000Z,98750
2018-03-28T13:12:52.000Z,98749
2018-03-28T13:14:52.000Z,98735
2018-03-28T13:16:52.000Z,98732
2018-03-28T13:17:52.000Z,98731
2018-03-28T13:19:52.000Z,98731
2018-03-28T13:21:52.000Z,98723
2018-03-28T13:23:52.000Z,98716
2018-03-28T13:24:52.000Z,98715
2018-03-28T13:26:52.000Z,98705
2018-03-28T13:28:52.000Z,98693
2018-03-28T13:29:51.000Z,98692
2018-03-28T13:31:51.000Z,98689
2018-03-28T13:33:51.000Z,98684
2018-03-28T13:35:51.000Z,98686
2018-03-28T13:37:51.000Z,98682
2018-03-28T13:39:52.000Z,98674
2018-03-28T13:41:51.000Z,98670
2018-03-28T13:43:51.000Z,98662
2018-03-28T13:45:51.000Z,98662
2018-03-28T13:47:37.000Z,98660
2018-03-28T13:48:51.000Z,98659
2018-03-28T13:49:51.000Z,98661
2018-03-28T13:51:51.000Z,98662
2018-03-28T13:53:51.000Z,98656
2018-03-28T13:54:51.000Z,98652
2018-03-28T13:56:51.000Z,98659
2018-03-28T13:57:51.000Z,98651
2018-03-28T13:59:36.000Z,98649
2018-03-28T14:00:52.000Z,98643
2018-03-28T14:02:51.000Z,98641
2018-03-28T14:04:51.000Z,98626
2018-03-28T14:06:21.000Z,98627
2018-03-28T14:07:51.000Z,98633
2018-03-28T14:08:51.000Z,98621
2018-03-28T14:10:51.000Z,98620
2018-03-28T14:12:51.000Z,98617
2018-03-28T14:13:51.000Z,98615
2018-03-28T14:14:51.000Z,98610
2018-03-28T14:15:51.000Z,98609
2018-03-28T14:16:51.000Z,98607
2018-03-28T14:18:36.000Z,98608
2018-03-28T14:19:51.000Z,98599
2018-03-28T14:20:51.000Z,98600
2018-03-28T14:22:51.000Z,98597
2018-03-28T14:23:51.000Z,98591
2018-03-28T14:24:51.000Z,98588
2018-03-28T14:25:51.000Z,98585
2018-03-28T14:27:51.000Z,98585
2018-03-28T14:29:51.000Z,98580
2018-03-28T14:30:51.000Z,98576
2018-03-28T14:32:51.000Z,98572
2018-03-28T14:34:52.000Z,98572
2018-03-28T14:36:52.000Z,98579
2018-03-28T14:37:52.000Z,98571
2018-03-28T14:39:52.000Z,98573
2018-03-28T14:41:52.000Z,98569
2018-03-28T14:43:52.000Z,98573
2018-03-28T14:44:52.000Z,98571
2018-03-28T14:46:52.000Z,98565
2018-03-28T14:48:52.000Z,98558
2018-03-28T14:49:52.000Z,98564
2018-03-28T14:51:52.000Z,98554
2018-03-28T14:52:52.000Z,98556
2018-03-28T14:53:52.000Z,98555
2018-03-28T14:54:52.000Z,98542
2018-03-28T14:56:36.000Z,98540
2018-03-28T14:57:52.000Z,98534
2018-03-28T14:59:52.000Z,98532
2018-03-28T15:00:52.000Z,98532
2018-03-28T15:01:52.000Z,98525
2018-03-28T15:03:52.000Z,98521
2018-03-28T15:04:52.000Z,98524
2018-03-28T15:06:52.000Z,98515
2018-03-28T15:08:52.000Z,98507
2018-03-28T15:10:52.000Z,98514
2018-03-28T15:12:52.000Z,98500
2018-03-28T15:13:52.000Z,98501
2018-03-28T15:15:52.000Z,98498
2018-03-28T15:16:52.000Z,98500
2018-03-28T15:17:52.000Z,98495
2018-03-28T15:18:52.000Z,98492
2018-03-28T15:20:52.000Z,98489
2018-03-28T15:21:52.000Z,98489
2018-03-28T15:23:52.000Z,98479
2018-03-28T15:24:52.000Z,98484
2018-03-28T15:26:52.000Z,98477
2018-03-28T15:27:52.000Z,98469
2018-03-28T15:29:52.000Z,98463
2018-03-28T15:31:52.000Z,98459
2018-03-28T15:33:52.000Z,98461
2018-03-28T15:35:52.000Z,98449
2018-03-28T15:37:51.000Z,98443
2018-03-28T15:39:51.000Z,98438
2018-03-28T15:40:51.000Z,98434
2018-03-28T15:42:51.000Z,98421
2018-03-28T15:44:51.000Z,98411
2018-03-28T15:45:51.000Z,98403
2018-03-28T15:46:51.000Z,98400
2018-03-28T15:48:51.000Z,98391
2018-03-28T15:50:51.000Z,98382
2018-03-28T15:51:51.000Z,98384
2018-03-28T15:52:51.000Z,98381
2018-03-28T15:54:51.000Z,98372
2018-03-28T15:56:36.000Z,98366
2018-03-28T15:57:51.000Z,98362
2018-03-28T15:59:51.000Z,98356
2018-03-28T16:01:36.000Z,98349
2018-03-28T16:02:51.000Z,98341
2018-03-28T16:04:51.000Z,98341
2018-03-28T16:06:51.000Z,98333
2018-03-28T16:08:36.000Z,98329
2018-03-28T16:09:51.000Z,98329
2018-03-28T16:10:51.000Z,98324
2018-03-28T16:12:51.000Z,98319
2018-03-28T16:13:51.000Z,98313
2018-03-28T16:15:51.000Z,98306
2018-03-28T16:17:36.000Z,98301
2018-03-28T16:18:51.000Z,98294
2018-03-28T16:19:51.000Z,98294
2018-03-28T16:21:51.000Z,98303
2018-03-28T16:22:51.000Z,98309
2018-03-28T16:24:51.000Z,98303
2018-03-28T16:26:51.000Z,98306
2018-03-28T16:28:51.000Z,98313
2018-03-28T16:29:51.000Z,98313
2018-03-28T16:31:51.000Z,98311
2018-03-28T16:32:51.000Z,98313
2018-03-28T16:34:51.000Z,98304
2018-03-28T16:35:51.000Z,98303
2018-03-28T16:36:51.000Z,98303
2018-03-28T16:38:51.000Z,98303
2018-03-28T16:40:52.000Z,98292
2018-03-28T16:42:52.000Z,98285
2018-03-28T16:44:52.000Z,98283
2018-03-28T16:46:37.000Z,98283
2018-03-28T16:47:52.000Z,98274
2018-03-28T16:49:52.000Z,98268
2018-03-28T16:51:52.000Z,98266
2018-03-28T16:53:52.000Z,98259
2018-03-28T16:54:52.000Z,98259
2018-03-28T16:55:52.000Z,98262
2018-03-28T16:57:52.000Z,98246
2018-03-28T16:58:52.000Z,98243
2018-03-28T16:59:52.000Z,98254
2018-03-28T17:01:52.000Z,98240
2018-03-28T17:02:52.000Z,98240
2018-03-28T17:04:52.000Z,98244
2018-03-28T17:06:52.000Z,98238
2018-03-28T17:08:52.000Z,98233
2018-03-28T17:09:52.000Z,98233
2018-03-28T17:11:52.000Z,98228
2018-03-28T17:12:52.000Z,98229
2018-03-28T17:14:37.000Z,98217
2018-03-28T17:15:52.000Z,98220
2018-03-28T17:16:52.000Z,98222
2018-03-28T17:17:52.000Z,98215
2018-03-28T17:18:52.000Z,98209
2018-03-28T17:20:37.000Z,98203
2018-03-28T17:21:52.000Z,98196
2018-03-28T17:22:52.000Z,98201
2018-03-28T17:24:52.000Z,98202
2018-03-28T17:26:37.000Z,98197
2018-03-28T17:27:52.000Z,98200
2018-03-28T17:29:37.000Z,98200
2018-03-28T17:30:52.000Z,98192
2018-03-28T17:32:37.000Z,98194
2018-03-28T17:33:52.000Z,98190
2018-03-28T17:35:52.000Z,98182
2018-03-28T17:36:52.000Z,98180
2018-03-28T17:38:52.000Z,98176
2018-03-28T17:40:52.000Z,98169
2018-03-28T17:42:37.000Z,98168
2018-03-28T17:43:52.000Z,98165
2018-03-28T17:44:52.000Z,98163
2018-03-28T17:46:52.000Z,98158
2018-03-28T17:47:52.000Z,98160
2018-03-28T17:49:52.000Z,98154
2018-03-28T17:50:52.000Z,98157
2018-03-28T17:52:52.000Z,98145
2018-03-28T17:54:52.000Z,98144
2018-03-28T17:55:52.000Z,98142
2018-03-28T17:57:52.000Z,98137
2018-03-28T17:59:52.000Z,98141
2018-03-28T18:01:52.000Z,98133
2018-03-28T18:02:52.000Z,98134
2018-03-28T18:03:52.000Z,98130
2018-03-28T18:05:52.000Z,98128
2018-03-28T18:07:52.000Z,98125
2018-03-28T18:08:52.000Z,98127
2018-03-28T18:10:37.000Z,98132
2018-03-28T18:11:37.000Z,98122
2018-03-28T18:12:52.000Z,98124
2018-03-28T18:13:52.000Z,98126
2018-03-28T18:15:22.000Z,98128
2018-03-28T18:16:52.000Z,98121
2018-03-28T18:18:37.000Z,98122
2018-03-28T18:19:52.000Z,98130
2018-03-28T18:21:52.000Z,98129
2018-03-28T18:23:37.000Z,98145
2018-03-28T18:24:52.000Z,98154
2018-03-28T18:25:52.000Z,98152
2018-03-28T18:27:37.000Z,98151
2018-03-28T18:28:52.000Z,98148
2018-03-28T18:30:52.000Z,98151
2018-03-28T18:32:52.000Z,98155
2018-03-28T18:34:52.000Z,98161
2018-03-28T18:35:52.000Z,98158
2018-03-28T18:37:52.000Z,98155
2018-03-28T18:39:22.000Z,98155
2018-03-28T18:40:52.000Z,98157
2018-03-28T18:42:52.000Z,98146
2018-03-28T18:44:52.000Z,98153
2018-03-28T18:46:52.000Z,98158
2018-03-28T18:48:51.000Z,98159
2018-03-28T18:49:51.000Z,98163
2018-03-28T18:51:51.000Z,98169
2018-03-28T18:53:51.000Z,98161
2018-03-28T18:55:36.000Z,98146
2018-03-28T18:56:51.000Z,98148
2018-03-28T18:58:51.000Z,98144
2018-03-28T19:00:51.000Z,98140
2018-03-28T19:02:51.000Z,98143
2018-03-28T19:03:51.000Z,98144
2018-03-28T19:04:51.000Z,98156
2018-03-28T19:05:51.000Z,98155
2018-03-28T19:07:51.000Z,98155
2018-03-28T19:09:51.000Z,98155
2018-03-28T19:11:51.000Z,98162
2018-03-28T19:12:51.000Z,98166
2018-03-28T19:13:51.000Z,98163
2018-03-28T19:14:51.000Z,98171
2018-03-28T19:16:51.000Z,98172
2018-03-28T19:18:51.000Z,98169
2018-03-28T19:20:51.000Z,98179
2018-03-28T19:22:51.000Z,98178
2018-03-28T19:24:51.000Z,98185
2018-03-28T19:25:51.000Z,98193
2018-03-28T19:27:51.000Z,98204
2018-03-28T19:29:51.000Z,98230
2018-03-28T19:31:51.000Z,98245
2018-03-28T19:32:51.000Z,98250
2018-03-28T19:33:51.000Z,98255
2018-03-28T19:35:51.000Z,98269
2018-03-28T19:37:51.000Z,98291
2018-03-28T19:38:51.000Z,98294
2018-03-28T19:39:51.000Z,98297
2018-03-28T19:41:36.000Z,98326
2018-03-28T19:42:51.000Z,98331
2018-03-28T19:44:36.000Z,98355
2018-03-28T19:45:51.000Z,98356
2018-03-28T19:46:51.000Z,98356
2018-03-28T19:48:36.000Z,98361
2018-03-28T19:49:51.000Z,98381
2018-03-28T19:51:36.000Z,98393
2018-03-28T19:52:51.000Z,98398
2018-03-28T19:54:51.000Z,98410
2018-03-28T19:55:51.000Z,98418
2018-03-28T19:57:36.000Z,98433
2018-03-28T19:58:51.000Z,98439
2018-03-28T19:59:51.000Z,98441
2018-03-28T20:01:51.000Z,98436
2018-03-28T20:02:51.000Z,98453
2018-03-28T20:04:51.000Z,98453
2018-03-28T20:06:51.000Z,98468
2018-03-28T20:08:51.000Z,98472
2018-03-28T20:10:36.000Z,98477
2018-03-28T20:11:51.000Z,98485
2018-03-28T20:13:51.000Z,98495
2018-03-28T20:14:51.000Z,98490
2018-03-28T20:16:51.000Z,98509
2018-03-28T20:18:51.000Z,98512
2018-03-28T20:19:51.000Z,98508
2018-03-28T20:21:51.000Z,98517
2018-03-28T20:23:51.000Z,98520
2018-03-28T20:24:51.000Z,98517
2018-03-28T20:26:51.000Z,98527
2018-03-28T20:28:51.000Z,98530
2018-03-28T20:29:51.000Z,98541
2018-03-28T20:30:51.000Z,98545
2018-03-28T20:32:51.000Z,98547
2018-03-28T20:34:36.000Z,98560
2018-03-28T20:36:51.000Z,98553
2018-03-28T20:37:51.000Z,98567
2018-03-28T20:39:51.000Z,98566
2018-03-28T20:41:51.000Z,98570
2018-03-28T20:42:51.000Z,98580
2018-03-28T20:44:51.000Z,98589
2018-03-28T20:45:51.000Z,98584
2018-03-28T20:47:51.000Z,98581
2018-03-28T20:48:51.000Z,98591